Time;durP1;ratioP1;P1;durP2;ratioP2;P2;SDS_P1;SDS_P2;PMS_P1;PMS_P2;Temp;Humidity;BMP_temperature;BMP_pressure;BME280_temperature;BME280_humidity;BME280_pressure;Samples;Min_cycle;Max_cycle;Signal;HPM_P1;HPM_P2
2023/02/03 00:01:07;;;;;;;2.03;1.13;;;9.80;92.20;;;;;;5025555;28;20029;-71
2023/02/03 00:03:32;;;;;;;1.65;1.05;;;9.80;92.20;;;;;;5029325;28;20096;-71
2023/02/03 00:06:00;;;;;;;1.85;1.13;;;9.80;92.10;;;;;;5026629;28;20037;-71
2023/02/03 00:08:26;;;;;;;5.25;1.27;;;9.80;92.20;;;;;;5027656;28;20022;-71
2023/02/03 00:10:53;;;;;;;4.43;1.55;;;9.80;92.20;;;;;;5028830;28;20044;-71
2023/02/03 00:13:19;;;;;;;1.88;1.20;;;9.80;92.20;;;;;;5024526;28;20033;-71
2023/02/03 00:15:44;;;;;;;4.97;1.20;;;9.80;92.20;;;;;;5025067;28;20582;-71
2023/02/03 00:18:10;;;;;;;2.97;1.40;;;9.80;92.10;;;;;;5021279;28;20120;-69
2023/02/03 00:20:36;;;;;;;2.15;0.90;;;9.80;92.10;;;;;;5022418;28;20026;-70
2023/02/03 00:23:07;;;;;;;1.33;1.10;;;9.80;92.10;;;;;;5026560;28;20108;-70
2023/02/03 00:25:32;;;;;;;1.52;1.08;;;9.80;92.10;;;;;;5025222;28;20021;-70
2023/02/03 00:27:58;;;;;;;2.70;1.30;;;9.80;92.10;;;;;;5025767;28;20040;-71
2023/02/03 00:30:23;;;;;;;5.68;1.88;;;9.80;92.10;;;;;;5027593;28;20018;-70
2023/02/03 00:32:49;;;;;;;2.28;1.05;;;9.80;92.10;;;;;;5030401;28;20022;-70
2023/02/03 00:35:14;;;;;;;2.55;1.13;;;9.80;92.10;;;;;;5027415;28;20430;-70
2023/02/03 00:37:40;;;;;;;2.20;0.98;;;9.80;92.00;;;;;;5029018;28;20029;-70
2023/02/03 00:40:06;;;;;;;2.05;1.20;;;9.90;92.00;;;;;;5029258;28;20022;-70
2023/02/03 00:42:33;;;;;;;9.38;1.50;;;9.90;92.00;;;;;;5027921;28;20045;-70
2023/02/03 00:44:59;;;;;;;2.40;1.13;;;9.90;92.00;;;;;;5029758;28;20037;-71
2023/02/03 00:47:25;;;;;;;7.75;1.83;;;9.90;92.00;;;;;;5028243;28;20040;-70
2023/02/03 00:49:50;;;;;;;2.65;1.30;;;9.80;91.90;;;;;;5029952;28;20021;-70
2023/02/03 00:52:16;;;;;;;5.78;1.48;;;9.90;92.00;;;;;;5025785;28;20022;-70
2023/02/03 00:54:41;;;;;;;0.93;0.88;;;9.90;91.90;;;;;;5028138;28;20399;-70
2023/02/03 00:57:07;;;;;;;3.40;1.33;;;9.90;91.90;;;;;;5029698;28;20026;-70
2023/02/03 00:59:33;;;;;;;3.17;1.30;;;9.90;91.90;;;;;;5027212;28;20113;-70
2023/02/03 01:01:58;;;;;;;5.07;1.33;;;9.90;91.90;;;;;;5028163;28;20057;-70
2023/02/03 01:04:24;;;;;;;4.72;1.85;;;9.90;91.90;;;;;;5023516;28;20059;-70
2023/02/03 01:06:49;;;;;;;2.47;1.10;;;9.90;91.90;;;;;;5028258;28;20095;-70
2023/02/03 01:09:15;;;;;;;2.08;1.10;;;9.90;91.90;;;;;;5029856;28;20039;-70
2023/02/03 01:11:40;;;;;;;2.40;1.10;;;9.90;91.80;;;;;;5027649;28;20411;-70
2023/02/03 01:14:06;;;;;;;2.95;1.15;;;9.90;91.80;;;;;;5031541;28;20091;-70
2023/02/03 01:16:35;;;;;;;2.92;1.25;;;9.90;91.80;;;;;;5027389;28;20033;-70
2023/02/03 01:19:10;;;;;;;4.95;1.27;;;9.90;91.70;;;;;;5023932;28;20795;-70
2023/02/03 01:21:36;;;;;;;1.40;1.23;;;9.90;91.70;;;;;;5026192;28;20049;-70
2023/02/03 01:24:02;;;;;;;3.33;1.00;;;9.90;91.70;;;;;;5021574;28;20021;-70
2023/02/03 01:26:27;;;;;;;4.32;1.42;;;9.90;91.70;;;;;;5024476;28;20029;-70
2023/02/03 01:28:58;;;;;;;2.80;1.50;;;9.90;91.70;;;;;;5024261;28;20034;-70
2023/02/03 01:31:34;;;;;;;1.83;1.20;;;9.90;91.70;;;;;;5022773;28;20065;-70
2023/02/03 01:34:00;;;;;;;1.38;1.15;;;9.90;91.70;;;;;;5022729;28;20026;-71
2023/02/03 01:36:29;;;;;;;3.22;1.25;;;9.90;91.70;;;;;;5023832;28;20029;-71
2023/02/03 01:38:55;;;;;;;2.15;1.40;;;10.00;91.70;;;;;;5024491;28;20034;-71
2023/02/03 01:41:24;;;;;;;4.07;1.40;;;9.90;91.70;;;;;;5025673;28;20837;-71
2023/02/03 01:43:52;;;;;;;7.13;1.30;;;9.90;91.70;;;;;;5026574;28;20135;-70
2023/02/03 01:46:37;;;;;;;2.08;1.27;;;9.90;91.70;;;;;;5023482;28;20021;-70
2023/02/03 01:49:16;;;;;;;2.47;0.90;;;9.90;91.60;;;;;;5035084;28;20507;-70
2023/02/03 01:51:44;;;;;;;2.40;0.80;;;9.90;91.70;;;;;;5031440;28;20022;-71
2023/02/03 01:54:14;;;;;;;3.55;0.93;;;9.90;91.60;;;;;;5034633;28;20365;-70
2023/02/03 01:56:46;;;;;;;2.55;1.05;;;9.90;91.60;;;;;;5029555;28;20021;-70
2023/02/03 01:59:16;;;;;;;1.65;0.90;;;9.90;91.60;;;;;;5034786;28;20048;-70
2023/02/03 02:01:41;;;;;;;1.33;0.90;;;9.90;91.60;;;;;;5033889;28;20051;-70
2023/02/03 02:04:07;;;;;;;2.47;1.33;;;9.90;91.60;;;;;;5037716;28;20112;-70
2023/02/03 02:06:33;;;;;;;1.92;1.00;;;9.90;91.60;;;;;;5039900;28;20040;-70
2023/02/03 02:09:00;;;;;;;3.67;1.20;;;9.90;91.50;;;;;;5032737;28;20026;-70
2023/02/03 02:11:26;;;;;;;2.35;1.40;;;9.90;91.50;;;;;;5041933;28;20026;-71
2023/02/03 02:13:54;;;;;;;5.97;1.35;;;9.90;91.60;;;;;;5031963;28;20084;-70
2023/02/03 02:16:44;;;;;;;3.60;0.95;;;9.90;91.60;;;;;;5031200;28;20053;-70
2023/02/03 02:19:22;;;;;;;4.60;1.52;;;9.90;91.60;;;;;;5012956;28;20514;-70
2023/02/03 02:22:11;;;;;;;1.33;0.73;;;9.90;91.50;;;;;;5028169;28;20029;-70
2023/02/03 02:25:08;;;;;;;2.42;1.00;;;9.90;91.50;;;;;;5031343;28;20113;-70
2023/02/03 02:27:51;;;;;;;1.42;1.00;;;9.90;91.50;;;;;;5030461;28;20025;-69
2023/02/03 02:30:51;;;;;;;1.88;1.10;;;9.90;91.50;;;;;;5031214;28;20381;-69
2023/02/03 02:33:29;;;;;;;1.85;1.13;;;9.90;91.50;;;;;;5031233;28;20492;-70
2023/02/03 02:35:57;;;;;;;2.15;0.82;;;9.90;91.50;;;;;;5030664;28;20029;-70
2023/02/03 02:38:37;;;;;;;1.52;1.08;;;9.90;91.50;;;;;;5030879;28;20036;-70
2023/02/03 02:41:13;;;;;;;1.25;0.82;;;9.90;91.40;;;;;;5031654;28;20030;-70
2023/02/03 02:44:03;;;;;;;5.10;1.52;;;10.00;91.40;;;;;;5031086;28;20107;-70
2023/02/03 02:46:32;;;;;;;2.28;0.85;;;9.90;91.40;;;;;;5030997;28;20396;-71
2023/02/03 02:49:05;;;;;;;2.97;1.40;;;9.90;91.40;;;;;;5029083;28;20104;-70
2023/02/03 02:51:32;;;;;;;1.63;1.17;;;9.90;91.30;;;;;;5032396;28;20025;-70
2023/02/03 02:54:01;;;;;;;4.25;1.15;;;9.90;91.30;;;;;;5030834;28;20017;-70
2023/02/03 02:56:30;;;;;;;1.55;0.90;;;9.90;91.30;;;;;;5031054;28;20041;-70
2023/02/03 02:58:58;;;;;;;2.30;0.90;;;10.00;91.40;;;;;;5030585;28;20022;-70
2023/02/03 03:01:24;;;;;;;1.20;0.98;;;10.00;91.30;;;;;;5030738;28;20095;-69
2023/02/03 03:03:51;;;;;;;2.60;1.30;;;10.00;91.20;;;;;;5030605;28;20025;-69
2023/02/03 03:06:34;;;;;;;3.30;0.88;;;9.90;91.20;;;;;;5031179;28;20619;-69
2023/02/03 03:09:11;;;;;;;0.93;0.90;;;9.90;91.20;;;;;;5028565;28;20026;-69
2023/02/03 03:11:43;;;;;;;1.95;1.10;;;10.00;91.20;;;;;;5026193;28;20028;-70
2023/02/03 03:14:11;;;;;;;2.67;1.00;;;10.00;91.20;;;;;;5030103;28;20053;-70
2023/02/03 03:16:43;;;;;;;4.13;1.13;;;10.00;91.20;;;;;;5030019;28;20508;-70
2023/02/03 03:19:16;;;;;;;1.02;0.80;;;10.00;91.20;;;;;;5029778;28;20037;-70
2023/02/03 03:21:50;;;;;;;1.27;0.85;;;10.00;91.20;;;;;;5030462;28;20499;-70
2023/02/03 03:24:45;;;;;;;2.53;0.80;;;10.00;91.10;;;;;;5029717;28;20392;-70
2023/02/03 03:27:19;;;;;;;4.60;0.88;;;10.00;91.10;;;;;;5028295;28;20030;-70
2023/02/03 03:29:51;;;;;;;1.83;1.30;;;10.00;91.10;;;;;;5029711;28;20041;-70
2023/02/03 03:32:17;;;;;;;1.08;0.90;;;10.00;91.10;;;;;;5030912;28;20025;-70
2023/02/03 03:34:43;;;;;;;4.45;0.93;;;10.00;91.10;;;;;;5024885;28;20030;-70
2023/02/03 03:37:34;;;;;;;2.25;1.00;;;10.00;91.10;;;;;;5029199;28;20022;-70
2023/02/03 03:40:11;;;;;;;3.50;1.03;;;10.00;91.00;;;;;;5030390;28;20025;-70
2023/02/03 03:43:00;;;;;;;2.30;1.20;;;10.00;91.00;;;;;;5027936;28;20021;-70
2023/02/03 03:45:59;;;;;;;1.10;1.00;;;10.00;91.00;;;;;;5029822;28;20033;-70
2023/02/03 03:48:31;;;;;;;5.55;1.20;;;10.00;91.00;;;;;;5029114;28;20033;-70
2023/02/03 03:51:12;;;;;;;;;;;10.00;91.00;;;;;;5030085;28;20507;-71
2023/02/03 03:53:42;;;;;;;2.78;0.80;;;10.00;90.90;;;;;;5028730;28;19916;-70
2023/02/03 03:56:14;;;;;;;2.78;1.33;;;10.00;91.00;;;;;;5028897;28;20021;-70
2023/02/03 03:58:44;;;;;;;2.80;0.90;;;9.90;91.00;;;;;;5023732;28;20076;-71
2023/02/03 04:01:11;;;;;;;1.55;1.00;;;9.90;91.00;;;;;;5030095;28;20021;-70
2023/02/03 04:03:51;;;;;;;1.33;0.98;;;9.90;91.00;;;;;;5030057;28;20022;-70
2023/02/03 04:06:16;;;;;;;0.88;0.82;;;10.00;91.00;;;;;;5020997;28;20108;-70
2023/02/03 04:08:42;;;;;;;1.90;1.27;;;10.00;90.90;;;;;;5029898;28;20425;-70
2023/02/03 04:11:08;;;;;;;1.88;1.05;;;10.00;90.90;;;;;;5029745;28;20264;-70
2023/02/03 04:13:33;;;;;;;1.92;1.10;;;10.00;90.90;;;;;;5028345;28;20025;-70
2023/02/03 04:15:59;;;;;;;1.58;1.15;;;10.00;90.90;;;;;;5029519;28;20029;-70
2023/02/03 04:18:24;;;;;;;4.15;1.27;;;10.00;90.90;;;;;;5027084;28;20037;-70
2023/02/03 04:20:50;;;;;;;2.95;1.20;;;10.00;90.90;;;;;;5024178;28;20025;-70
2023/02/03 04:23:16;;;;;;;2.17;0.88;;;10.00;90.90;;;;;;5027490;28;20029;-70
2023/02/03 04:25:41;;;;;;;3.50;0.85;;;10.10;90.90;;;;;;5028868;28;20032;-71
2023/02/03 04:28:07;;;;;;;1.83;1.10;;;10.10;90.90;;;;;;5028917;28;20071;-70
2023/02/03 04:30:33;;;;;;;1.45;0.90;;;10.10;90.80;;;;;;5027962;28;20094;-71
2023/02/03 04:32:59;;;;;;;2.35;1.02;;;10.10;90.80;;;;;;5027860;28;20030;-71
2023/02/03 04:35:24;;;;;;;3.97;1.08;;;10.10;90.90;;;;;;5028962;28;20018;-71
2023/02/03 04:37:50;;;;;;;4.15;1.10;;;10.10;90.90;;;;;;5029964;28;20101;-71
2023/02/03 04:40:16;;;;;;;3.22;1.15;;;10.10;90.90;;;;;;5029838;28;20132;-71
2023/02/03 04:42:41;;;;;;;1.95;1.10;;;10.10;90.90;;;;;;5028952;28;20068;-71
2023/02/03 04:45:09;;;;;;;1.27;0.95;;;10.10;90.80;;;;;;5028911;28;20037;-70
2023/02/03 04:47:36;;;;;;;1.67;0.80;;;10.10;90.80;;;;;;5027634;28;20037;-69
2023/02/03 04:50:01;;;;;;;4.57;0.90;;;10.10;90.80;;;;;;5029558;28;20032;-70
2023/02/03 04:52:27;;;;;;;2.00;0.80;;;10.10;90.80;;;;;;5030111;28;20025;-70
2023/02/03 04:54:53;;;;;;;2.25;1.40;;;10.10;90.80;;;;;;5027526;28;20411;-70
2023/02/03 04:57:18;;;;;;;1.90;1.23;;;10.10;90.80;;;;;;5027816;28;20492;-70
2023/02/03 04:59:44;;;;;;;4.93;1.00;;;10.10;90.80;;;;;;5028941;28;20048;-70
2023/02/03 05:02:09;;;;;;;1.02;0.82;;;10.10;90.80;;;;;;5028763;28;20099;-70
2023/02/03 05:04:35;;;;;;;2.97;1.05;;;10.10;90.70;;;;;;5029147;28;20028;-70
2023/02/03 05:07:00;;;;;;;2.20;1.10;;;10.10;90.80;;;;;;5029243;28;20077;-69
2023/02/03 05:09:26;;;;;;;1.00;0.80;;;10.10;90.70;;;;;;5030208;28;20021;-70
2023/02/03 05:11:52;;;;;;;2.15;1.20;;;10.10;90.70;;;;;;5029422;28;20080;-70
2023/02/03 05:14:18;;;;;;;5.40;1.38;;;10.10;90.70;;;;;;5032717;28;20032;-70
2023/02/03 05:16:44;;;;;;;2.13;0.88;;;10.10;90.70;;;;;;5030956;28;20037;-70
2023/02/03 05:19:09;;;;;;;2.17;0.90;;;10.10;90.70;;;;;;5032653;28;20026;-70
2023/02/03 05:21:35;;;;;;;2.22;1.20;;;10.10;90.70;;;;;;5031573;28;20029;-69
2023/02/03 05:24:02;;;;;;;1.92;0.70;;;10.10;90.70;;;;;;5032361;28;20029;-70
2023/02/03 05:26:28;;;;;;;2.95;0.90;;;10.10;90.70;;;;;;5031677;28;20025;-70
2023/02/03 05:28:53;;;;;;;3.15;1.00;;;10.10;90.70;;;;;;5032565;28;20068;-70
2023/02/03 05:31:19;;;;;;;2.53;1.05;;;10.10;90.70;;;;;;5031563;28;20022;-70
2023/02/03 05:33:44;;;;;;;3.13;0.90;;;10.10;90.70;;;;;;5032217;28;20022;-70
2023/02/03 05:36:10;;;;;;;2.10;0.63;;;10.10;90.70;;;;;;5032179;28;20021;-70
2023/02/03 05:38:35;;;;;;;2.38;1.05;;;10.10;90.70;;;;;;5030260;28;20036;-70
2023/02/03 05:43:45;;;;;;;2.28;1.02;;;10.20;90.70;;;;;;5031260;28;20087;-70
2023/02/03 05:46:11;;;;;;;4.43;1.55;;;10.10;90.60;;;;;;5031150;28;20108;-71
2023/02/03 05:48:36;;;;;;;2.13;0.90;;;10.10;90.60;;;;;;5030461;28;20053;-71
2023/02/03 05:51:02;;;;;;;1.55;0.90;;;10.10;90.60;;;;;;5031763;28;20021;-70
2023/02/03 05:53:28;;;;;;;1.50;0.90;;;10.20;90.70;;;;;;5030730;28;20041;-70
2023/02/03 05:55:53;;;;;;;2.83;0.90;;;10.10;90.60;;;;;;5031427;28;20108;-71
2023/02/03 05:58:19;;;;;;;0.82;0.80;;;10.10;90.60;;;;;;5031826;28;20068;-71
2023/02/03 06:00:45;;;;;;;3.78;1.15;;;10.10;90.60;;;;;;5030218;28;20033;-71
2023/02/03 06:03:10;;;;;;;1.60;1.08;;;10.10;90.70;;;;;;5030044;28;20025;-71
2023/02/03 06:05:39;;;;;;;3.85;0.88;;;10.10;90.70;;;;;;5031849;28;20032;-71
2023/02/03 06:08:06;;;;;;;1.05;0.80;;;10.20;90.70;;;;;;5030923;28;20032;-71
2023/02/03 06:10:32;;;;;;;2.00;0.98;;;10.10;90.60;;;;;;5032781;28;20079;-71
2023/02/03 06:12:57;;;;;;;4.90;1.42;;;10.10;90.70;;;;;;5025440;28;20096;-71
2023/02/03 06:15:23;;;;;;;0.80;0.70;;;10.10;90.70;;;;;;5028831;28;20029;-71
2023/02/03 06:17:49;;;;;;;2.63;0.98;;;10.10;90.70;;;;;;5027048;28;20036;-71
2023/02/03 06:20:17;;;;;;;1.40;0.90;;;10.20;90.70;;;;;;5031040;28;20484;-70
2023/02/03 06:22:42;;;;;;;3.95;0.90;;;10.20;90.70;;;;;;5028852;28;20029;-71
2023/02/03 06:25:09;;;;;;;2.33;0.75;;;10.10;90.70;;;;;;5030398;28;20025;-71
2023/02/03 06:27:35;;;;;;;4.45;1.38;;;10.10;90.70;;;;;;5028185;28;20037;-71
2023/02/03 06:30:00;;;;;;;1.42;0.90;;;10.10;90.70;;;;;;5022824;28;20514;-71
2023/02/03 06:32:26;;;;;;;3.53;1.15;;;10.10;90.70;;;;;;5028535;28;20024;-72
2023/02/03 06:34:51;;;;;;;1.45;0.70;;;10.10;90.70;;;;;;5031584;28;20491;-71
2023/02/03 06:37:17;;;;;;;2.55;0.85;;;10.10;90.70;;;;;;5026805;28;20060;-71
2023/02/03 06:39:43;;;;;;;1.80;0.90;;;10.10;90.70;;;;;;5025547;28;20440;-71
2023/02/03 06:42:09;;;;;;;1.63;1.00;;;10.10;90.80;;;;;;5027439;28;20029;-71
2023/02/03 06:44:34;;;;;;;4.22;1.63;;;10.10;90.80;;;;;;5030485;28;20030;-70
2023/02/03 06:47:03;;;;;;;3.05;0.80;;;10.10;90.80;;;;;;5027061;28;20029;-70
2023/02/03 06:49:29;;;;;;;3.33;1.00;;;10.10;90.70;;;;;;5024995;28;20409;-70
2023/02/03 06:51:55;;;;;;;2.75;1.02;;;10.10;90.80;;;;;;5029187;28;20022;-70
2023/02/03 06:54:20;;;;;;;2.95;0.90;;;10.10;90.70;;;;;;5019267;28;20109;-71
2023/02/03 06:56:46;;;;;;;6.03;1.48;;;10.00;90.80;;;;;;5016644;28;20029;-71
2023/02/03 06:59:12;;;;;;;6.55;1.65;;;10.00;90.80;;;;;;5029146;28;20029;-71
2023/02/03 07:01:37;;;;;;;1.55;0.80;;;10.00;90.80;;;;;;5027898;28;20029;-71
2023/02/03 07:04:04;;;;;;;3.60;1.10;;;10.00;90.80;;;;;;5031532;28;20040;-71
2023/02/03 07:06:32;;;;;;;2.38;1.08;;;10.00;90.80;;;;;;5030297;28;20069;-71
2023/02/03 07:08:59;;;;;;;1.40;0.90;;;10.00;90.80;;;;;;5030939;28;20017;-71
2023/02/03 07:11:25;;;;;;;0.93;0.85;;;10.10;90.80;;;;;;5029222;28;20021;-70
2023/02/03 07:13:51;;;;;;;6.25;1.65;;;10.00;90.80;;;;;;5030433;28;20029;-70
2023/02/03 07:16:17;;;;;;;2.33;1.02;;;10.10;90.80;;;;;;5031243;28;20074;-70
2023/02/03 07:18:43;;;;;;;2.05;0.95;;;10.10;90.80;;;;;;5029486;28;20032;-70
2023/02/03 07:21:09;;;;;;;2.30;0.98;;;10.00;90.80;;;;;;5022074;28;20033;-70
2023/02/03 07:23:34;;;;;;;1.63;0.93;;;10.10;90.80;;;;;;5030559;28;20369;-71
2023/02/03 07:26:03;;;;;;;1.30;1.00;;;10.10;90.80;;;;;;5029003;28;20115;-71
2023/02/03 07:28:33;;;;;;;2.58;1.25;;;10.00;90.80;;;;;;5022776;28;20524;-71
2023/02/03 07:30:59;;;;;;;3.17;1.20;;;10.10;90.80;;;;;;5028181;28;20025;-72
2023/02/03 07:33:25;;;;;;;3.63;0.95;;;10.00;90.80;;;;;;5027016;28;20025;-71
2023/02/03 07:35:56;;;;;;;2.25;1.20;;;10.10;90.80;;;;;;5026530;28;20658;-71
2023/02/03 07:38:23;;;;;;;1.05;0.68;;;10.10;90.80;;;;;;5028780;28;20021;-71
2023/02/03 07:40:49;;;;;;;0.85;0.60;;;10.10;90.80;;;;;;5023736;28;20074;-71
2023/02/03 07:43:14;;;;;;;4.38;1.05;;;10.10;90.80;;;;;;5026502;28;20018;-71
2023/02/03 07:45:40;;;;;;;1.98;1.00;;;10.10;90.70;;;;;;5029605;28;20076;-71
2023/02/03 07:48:06;;;;;;;3.38;1.25;;;10.10;90.70;;;;;;5026690;28;20484;-71
2023/02/03 07:50:34;;;;;;;3.30;0.90;;;10.10;90.80;;;;;;5023100;28;20022;-71
2023/02/03 07:53:01;;;;;;;4.00;1.25;;;10.10;90.80;;;;;;5023309;28;20395;-71
2023/02/03 07:55:27;;;;;;;0.88;0.82;;;10.00;90.80;;;;;;5026342;28;20021;-70
2023/02/03 07:57:57;;;;;;;2.40;1.05;;;10.10;90.80;;;;;;5022266;28;20044;-70
2023/02/03 08:00:24;;;;;;;1.67;0.80;;;10.10;90.80;;;;;;5027090;28;20030;-71
2023/02/03 08:02:50;;;;;;;2.58;0.95;;;10.10;90.80;;;;;;5023407;28;20072;-70
2023/02/03 08:05:15;;;;;;;1.92;1.17;;;10.10;90.70;;;;;;5029265;28;20056;-71
2023/02/03 08:07:42;;;;;;;2.13;1.02;;;10.10;90.70;;;;;;5029714;28;20032;-71
2023/02/03 08:10:09;;;;;;;1.10;0.82;;;10.10;90.70;;;;;;5028385;28;20025;-70
2023/02/03 08:12:35;;;;;;;3.42;1.00;;;10.10;90.70;;;;;;5030206;28;20025;-70
2023/02/03 08:15:01;;;;;;;0.75;0.70;;;10.20;90.70;;;;;;5030279;28;20091;-71
2023/02/03 08:17:27;;;;;;;0.77;0.57;;;10.20;90.70;;;;;;5030017;28;20091;-70
2023/02/03 08:19:52;;;;;;;1.00;0.65;;;10.20;90.70;;;;;;5030414;28;20033;-69
2023/02/03 08:22:18;;;;;;;1.75;0.93;;;10.20;90.70;;;;;;5028993;28;20128;-70
2023/02/03 08:24:49;;;;;;;2.75;0.80;;;10.30;90.70;;;;;;5026278;28;20025;-70
2023/02/03 08:27:17;;;;;;;0.90;0.90;;;10.30;90.70;;;;;;5021311;28;20040;-70
2023/02/03 08:29:44;;;;;;;1.00;0.90;;;10.30;90.60;;;;;;5022646;28;20407;-70
2023/02/03 08:32:11;;;;;;;1.45;1.00;;;10.30;90.60;;;;;;5021556;28;20017;-71
2023/02/03 08:34:37;;;;;;;3.92;1.02;;;10.30;90.60;;;;;;5024851;28;20192;-70
2023/02/03 08:37:04;;;;;;;4.50;0.90;;;10.30;90.60;;;;;;5024491;28;20507;-70
2023/02/03 08:39:29;;;;;;;2.22;1.00;;;10.40;90.60;;;;;;5025322;28;20033;-71
2023/02/03 08:41:55;;;;;;;3.13;1.15;;;10.40;90.50;;;;;;5022920;28;20037;-70
2023/02/03 08:44:23;;;;;;;1.42;0.90;;;10.40;90.50;;;;;;5024398;28;20048;-70
2023/02/03 08:46:50;;;;;;;2.63;0.85;;;10.50;90.50;;;;;;5021589;28;20075;-71
2023/02/03 08:49:15;;;;;;;1.25;0.80;;;10.50;90.50;;;;;;5024279;28;20029;-69
2023/02/03 08:51:41;;;;;;;1.30;0.95;;;10.50;90.40;;;;;;5022619;28;20445;-70
2023/02/03 08:54:07;;;;;;;2.15;0.93;;;10.50;90.40;;;;;;5020285;28;20049;-71
2023/02/03 08:56:35;;;;;;;1.20;0.70;;;10.50;90.40;;;;;;5021322;28;20133;-70
2023/02/03 08:59:00;;;;;;;4.00;1.30;;;10.60;90.40;;;;;;5019150;28;20087;-70
2023/02/03 09:01:26;;;;;;;3.53;1.20;;;10.60;90.40;;;;;;5026414;28;21206;-70
2023/02/03 09:03:52;;;;;;;3.40;0.90;;;10.60;90.40;;;;;;5027352;28;20037;-70
2023/02/03 09:06:18;;;;;;;4.40;1.30;;;10.60;90.30;;;;;;5026691;28;20083;-71
2023/02/03 09:08:45;;;;;;;2.63;1.00;;;10.60;90.30;;;;;;5024446;28;20031;-70
2023/02/03 09:11:12;;;;;;;1.80;0.80;;;10.60;90.30;;;;;;5025393;28;20534;-70
2023/02/03 09:13:39;;;;;;;3.88;1.13;;;10.60;90.40;;;;;;5023781;28;20083;-70
2023/02/03 09:16:06;;;;;;;1.30;0.88;;;10.60;90.30;;;;;;5024718;28;20533;-70
2023/02/03 09:18:32;;;;;;;1.80;1.10;;;10.60;90.30;;;;;;5026164;28;20396;-70
2023/02/03 09:21:06;;;;;;;1.08;0.90;;;10.60;90.30;;;;;;5027254;28;20021;-71
2023/02/03 09:23:32;;;;;;;1.27;1.05;;;10.70;90.30;;;;;;5026488;28;20033;-70
2023/02/03 09:26:09;;;;;;;2.22;1.08;;;10.70;90.30;;;;;;5026344;28;20401;-70
2023/02/03 09:28:35;;;;;;;4.60;1.20;;;10.80;90.20;;;;;;5026392;28;20715;-70
2023/02/03 09:31:16;;;;;;;1.80;1.00;;;10.80;90.20;;;;;;5027750;28;20021;-70
2023/02/03 09:33:43;;;;;;;3.08;0.88;;;10.80;90.20;;;;;;5026614;28;20090;-70
2023/02/03 09:36:10;;;;;;;2.38;1.33;;;10.80;90.20;;;;;;5027958;28;20251;-72
2023/02/03 09:38:36;;;;;;;1.55;1.00;;;10.80;90.20;;;;;;5029127;28;20021;-70
2023/02/03 09:41:13;;;;;;;4.70;1.15;;;10.90;90.10;;;;;;5026134;28;20033;-70
2023/02/03 09:43:59;;;;;;;3.08;0.90;;;10.90;90.40;;;;;;5027217;28;20034;-71
2023/02/03 09:46:29;;;;;;;1.85;1.27;;;10.90;90.10;;;;;;5029944;28;20504;-71
2023/02/03 09:49:18;;;;;;;4.22;1.20;;;11.00;90.10;;;;;;5028431;28;20036;-71
2023/02/03 09:51:52;;;;;;;1.58;1.00;;;11.00;90.10;;;;;;5026308;28;20050;-70
2023/02/03 09:54:33;;;;;;;1.63;0.93;;;11.00;90.10;;;;;;5028385;28;20508;-70
2023/02/03 09:56:59;;;;;;;2.75;1.35;;;11.00;90.10;;;;;;5026991;28;20037;-71
2023/02/03 09:59:26;;;;;;;2.72;1.10;;;11.00;90.00;;;;;;5026415;28;20048;-70
2023/02/03 10:01:56;;;;;;;2.55;0.93;;;11.10;90.00;;;;;;5026894;28;20082;-71
2023/02/03 10:04:36;;;;;;;5.63;1.33;;;11.10;90.00;;;;;;5029447;28;20037;-71
2023/02/03 10:07:24;;;;;;;3.75;1.13;;;11.10;89.90;;;;;;5028345;28;20030;-71
2023/02/03 10:10:10;;;;;;;3.97;0.80;;;11.10;89.90;;;;;;5027362;28;20127;-70
2023/02/03 10:13:04;;;;;;;1.90;1.08;;;11.20;89.90;;;;;;5030270;28;20022;-70
2023/02/03 10:15:50;;;;;;;1.60;1.10;;;11.20;89.80;;;;;;5028940;28;20105;-71
2023/02/03 10:18:29;;;;;;;3.10;0.88;;;11.20;89.70;;;;;;5028578;28;20278;-70
2023/02/03 10:21:18;;;;;;;1.45;0.95;;;11.20;89.70;;;;;;5026752;28;20029;-70
2023/02/03 10:23:45;;;;;;;3.88;1.00;;;11.20;89.60;;;;;;5029959;28;20492;-71
2023/02/03 10:26:19;;;;;;;1.95;0.70;;;11.30;89.70;;;;;;5028648;28;20025;-71
2023/02/03 10:28:53;;;;;;;0.60;0.60;;;11.30;89.70;;;;;;5030803;28;20066;-71
2023/02/03 10:31:22;;;;;;;0.70;0.60;;;11.30;89.60;;;;;;5026283;28;20140;-71
2023/02/03 10:34:11;;;;;;;2.20;1.05;;;11.30;89.60;;;;;;5027504;28;20068;-70
2023/02/03 10:36:55;;;;;;;1.10;0.90;;;11.30;89.50;;;;;;5029798;28;20029;-71
2023/02/03 10:39:39;;;;;;;2.35;1.00;;;11.30;89.50;;;;;;5028382;28;20025;-70
2023/02/03 10:42:06;;;;;;;2.42;1.20;;;11.30;89.40;;;;;;5029181;28;20471;-70
2023/02/03 10:44:55;;;;;;;3.58;1.30;;;11.30;89.40;;;;;;5032007;28;20691;-70
2023/02/03 10:47:20;;;;;;;4.70;1.33;;;11.30;89.40;;;;;;5031758;28;20109;-70
2023/02/03 10:49:50;;;;;;;1.52;1.00;;;11.30;89.30;;;;;;5029664;28;20108;-70
2023/02/03 10:52:31;;;;;;;1.15;1.02;;;11.30;89.30;;;;;;5031142;28;20522;-71
2023/02/03 10:55:00;;;;;;;5.43;1.40;;;11.30;89.30;;;;;;5032350;28;20044;-70
2023/02/03 10:57:28;;;;;;;3.33;1.27;;;11.40;89.20;;;;;;5028346;28;20450;-70
2023/02/03 11:00:06;;;;;;;1.48;1.10;;;11.40;89.30;;;;;;5028669;28;20029;-71
2023/02/03 11:02:32;;;;;;;4.80;1.17;;;11.40;89.30;;;;;;5028248;28;20084;-70
2023/02/03 11:05:23;;;;;;;2.35;1.55;;;11.40;89.10;;;;;;5028914;28;20029;-71
2023/02/03 11:07:49;;;;;;;2.92;1.13;;;11.40;89.20;;;;;;5031235;28;20419;-70
2023/02/03 11:10:34;;;;;;;4.38;1.67;;;11.40;89.20;;;;;;5025771;28;20037;-71
2023/02/03 11:13:15;;;;;;;3.35;1.55;;;11.40;89.10;;;;;;5026393;28;20033;-70
2023/02/03 11:15:56;;;;;;;3.63;1.00;;;11.40;89.00;;;;;;5030784;28;21547;-71
2023/02/03 11:18:29;;;;;;;2.63;1.20;;;11.40;89.00;;;;;;5030217;28;20040;-70
2023/02/03 11:20:56;;;;;;;2.33;1.25;;;11.40;88.90;;;;;;5024618;28;20018;-70
2023/02/03 11:23:22;;;;;;;1.15;1.05;;;11.40;89.00;;;;;;5027867;28;20029;-70
2023/02/03 11:25:47;;;;;;;5.22;1.30;;;11.50;89.00;;;;;;5027087;28;20021;-70
2023/02/03 11:28:13;;;;;;;2.20;0.98;;;11.50;88.80;;;;;;5043458;28;20029;-70
2023/02/03 11:30:39;;;;;;;3.97;1.17;;;11.40;88.80;;;;;;5028064;28;20143;-71
2023/02/03 11:33:18;;;;;;;1.20;1.10;;;11.50;88.90;;;;;;5026711;28;20052;-71
2023/02/03 11:35:56;;;;;;;1.13;0.88;;;11.50;88.90;;;;;;5027817;28;20366;-69
2023/02/03 11:38:37;;;;;;;2.97;1.15;;;11.50;88.90;;;;;;5028942;28;20033;-69
2023/02/03 11:41:03;;;;;;;2.35;1.48;;;11.60;88.80;;;;;;5029247;28;20079;-69
2023/02/03 11:43:29;;;;;;;1.58;0.90;;;11.60;88.80;;;;;;5026815;28;20511;-69
2023/02/03 11:46:02;;;;;;;5.03;1.17;;;11.70;88.70;;;;;;5029079;28;20436;-69
2023/02/03 11:48:43;;;;;;;6.18;2.00;;;11.70;88.60;;;;;;5023515;28;20034;-69
2023/02/03 11:51:23;;;;;;;2.47;1.10;;;11.70;88.40;;;;;;5027807;28;20013;-69
2023/02/03 11:54:01;;;;;;;2.05;1.08;;;11.70;88.40;;;;;;5026598;28;20424;-69
2023/02/03 11:56:48;;;;;;;3.80;1.33;;;11.70;88.30;;;;;;5027798;28;20384;-69
2023/02/03 11:59:34;;;;;;;3.15;1.25;;;11.60;88.20;;;;;;5028142;28;20026;-69
2023/02/03 12:02:35;;;;;;;3.45;1.20;;;11.60;88.40;;;;;;5027440;28;20029;-69
2023/02/03 12:05:22;;;;;;;2.63;1.13;;;11.70;88.40;;;;;;5027425;28;20440;-69
2023/02/03 12:08:06;;;;;;;2.13;1.25;;;11.70;88.40;;;;;;5028193;28;20485;-69
2023/02/03 12:10:46;;;;;;;2.70;0.90;;;11.70;88.40;;;;;;5028513;28;20029;-69
2023/02/03 12:13:51;;;;;;;1.75;1.15;;;11.70;88.40;;;;;;5025843;28;20030;-69
2023/02/03 12:16:43;;;;;;;2.28;1.20;;;11.60;88.30;;;;;;5027624;28;20021;-69
2023/02/03 12:19:40;;;;;;;2.70;1.10;;;11.60;88.30;;;;;;5029615;28;20041;-69
2023/02/03 12:22:11;;;;;;;1.90;0.98;;;11.60;88.40;;;;;;5029212;28;20025;-69
2023/02/03 12:25:02;;;;;;;2.90;1.17;;;11.60;88.30;;;;;;5031903;28;20302;-69
2023/02/03 12:27:46;;;;;;;2.13;1.30;;;11.70;88.40;;;;;;5032000;28;20029;-70
2023/02/03 12:30:27;;;;;;;1.02;0.90;;;11.70;88.40;;;;;;5028225;28;20023;-69
2023/02/03 12:33:01;;;;;;;1.63;1.00;;;11.60;88.30;;;;;;5025404;28;20029;-70
2023/02/03 12:35:33;;;;;;;2.00;1.05;;;11.60;88.60;;;;;;5023193;28;20493;-70
2023/02/03 12:38:04;;;;;;;1.70;0.93;;;11.50;88.80;;;;;;5022626;28;20125;-68
2023/02/03 12:40:50;;;;;;;4.20;1.08;;;11.40;89.10;;;;;;5024297;28;20545;-68
2023/02/03 12:43:39;;;;;;;1.77;1.10;;;11.40;89.50;;;;;;5028183;28;20030;-69
2023/02/03 12:46:26;;;;;;;2.72;1.02;;;11.20;89.80;;;;;;5026931;28;20042;-69
2023/02/03 12:49:12;;;;;;;2.97;1.70;;;11.20;90.10;;;;;;5024466;28;20033;-69
2023/02/03 12:51:55;;;;;;;4.72;1.30;;;11.10;90.30;;;;;;5026607;28;20171;-69
2023/02/03 12:54:28;;;;;;;1.70;1.30;;;10.90;90.80;;;;;;5029438;28;20480;-70
2023/02/03 12:56:56;;;;;;;2.42;1.38;;;10.80;90.70;;;;;;5023957;28;20021;-69
2023/02/03 12:59:27;;;;;;;3.90;1.30;;;10.80;90.80;;;;;;5026827;28;20021;-68
2023/02/03 13:02:01;;;;;;;2.30;1.52;;;10.70;90.80;;;;;;5024820;28;20069;-68
2023/02/03 13:04:41;;;;;;;5.35;1.50;;;10.70;90.90;;;;;;5024023;28;20486;-69
2023/02/03 13:07:20;;;;;;;2.08;1.42;;;10.60;91.00;;;;;;5025476;28;20052;-68
2023/02/03 13:09:53;;;;;;;2.33;1.42;;;10.60;91.10;;;;;;5030044;28;20060;-69
2023/02/03 13:12:19;;;;;;;3.35;1.48;;;10.60;91.10;;;;;;5027338;28;20573;-69